Mukwonago, WI

11:57 AM CDT on April 26, 2015 (GMT -0500)
Spring Lake South Shore | | Change Station
CLOSE
Current Station
Personal Weather Station
Location: Mukwonago, WI
Elevation: 992 ft
Nearby Weather Stations

Elev 992 ft 42.91 °N, 88.37 °W | Updated 4 seconds ago

Clear
Clear
58.8 °F
Feels Like 58.8 °F
N
5.0
Wind Variable Wind from NNE
Gusts 12.0 mph

Today
High -- | Low -- °F
--% Chance of Precip.
Yesterday
High -- | Low -- °F
Precip. -- in
5:55 AM 7:48 PM
First Quarter, 57% visible
Pressure 30.05 in
Visibility 10.0 miles
Clouds Clear
Dew Point 30 °F
Humidity 34%
Rainfall 0.00 in
Snow Depth Not available.
UV 9 out of 12
Pollen 10.70 out of 12
Air Quality Not available.
Flu Activity Local Activity
METAR KBUU 261615Z AUTO 05004KT 10SM CLR 11/M04 A3005 RMK AO2 T01081036

More Conditions Fewer Conditions

Pressure 30.05 in
Visibility 10.0 miles
Clouds Clear
Dew Point 30 °F
Humidity 34%
Rainfall 0.00 in
Snow Depth Not available.
UV 9 out of 12
Pollen 10.70 out of 12
Air Quality Not available.
Flu Activity Local Activity
METAR KBUU 261615Z AUTO 05004KT 10SM CLR 11/M04 A3005 RMK AO2 T01081036

More Conditions Fewer Conditions

The full scope of the disaster following a powerful 7.8-magnitude earthquake in Nepal may not come into view for days, but global charities are already sending emergency aid. Click to see how you can help.

10-Day Weather Forecast

Almanac

Astronomy

Apr. 26, 2015 Rise Set
Actual Time
Civil Twilight
Nautical Twilight
Astronomical Twilight
Moon
Length of Visible Light
Length of Day
Tomorrow will be .
, % of the Moon is Illuminated

Today's Extremes

State Highs State Lows

Community

WunderPhotos

Upload Photos

1,817,054 photos uploaded!

WunderBlogs® & News

Nearby

Air Quality

  Air Quality AQ Index Pollutant
Not available.

Snow Depth

Station Depth Elevation

Earthquake Activity

City Distance Mag. Time & Date
Minimum magnitude displayed is 2.5.

Coastal Water Temperatures

Place Temperature

Stations

Nearby Weather Stations

Station Location Temp. Windchill Dew Point Humidity Wind Precip. Elev Updated Type